createdAt,value
2022-12-01T00:02:18.260Z,11.77
2022-12-01T00:05:05.485Z,19.08
2022-12-01T00:07:52.901Z,14.25
2022-12-01T00:10:38.795Z,13.55
2022-12-01T00:13:27.203Z,15.77
2022-12-01T00:16:15.389Z,16.25
2022-12-01T00:19:03.075Z,12.43
2022-12-01T00:21:50.331Z,12.35
2022-12-01T00:24:37.519Z,13.50
2022-12-01T00:27:25.067Z,12.90
2022-12-01T00:30:14.378Z,12.90
2022-12-01T00:33:01.551Z,14.52
2022-12-01T00:35:48.813Z,13.75
2022-12-01T00:38:36.310Z,13.77
2022-12-01T00:41:24.260Z,14.73
2022-12-01T00:44:11.545Z,11.85
2022-12-01T00:47:00.097Z,15.02
2022-12-01T00:49:47.623Z,16.35
2022-12-01T00:52:35.164Z,15.25
2022-12-01T00:55:22.463Z,18.33
2022-12-01T00:58:10.003Z,21.35
2022-12-01T01:01:00.483Z,16.48
2022-12-01T01:03:49.608Z,19.02
2022-12-01T01:06:36.630Z,15.18
2022-12-01T01:09:23.984Z,14.48
2022-12-01T01:12:11.157Z,17.63
2022-12-01T01:14:58.524Z,18.10
2022-12-01T01:17:47.835Z,16.90
2022-12-01T01:20:38.941Z,16.15
2022-12-01T01:23:28.975Z,15.75
2022-12-01T01:26:17.866Z,16.75
2022-12-01T01:29:08.674Z,14.93
2022-12-01T01:31:58.094Z,15.52
2022-12-01T01:34:48.116Z,16.67
2022-12-01T01:37:39.146Z,14.45
2022-12-01T01:40:27.899Z,13.60
2022-12-01T01:43:17.914Z,18.95
2022-12-01T01:46:07.850Z,14.25
2022-12-01T01:49:00.888Z,14.77
2022-12-01T01:51:53.713Z,14.65
2022-12-01T01:54:47.295Z,17.85
2022-12-01T01:57:37.254Z,25.10
2022-12-01T02:00:26.968Z,17.25
2022-12-01T02:03:18.631Z,17.00
2022-12-01T02:06:09.130Z,16.73
2022-12-01T02:08:58.023Z,15.55
2022-12-01T02:11:56.197Z,21.33
2022-12-01T02:14:55.929Z,17.73
2022-12-01T02:17:48.543Z,20.67
2022-12-01T02:20:51.132Z,15.20
2022-12-01T02:23:53.066Z,20.85
2022-12-01T02:26:48.762Z,18.40
2022-12-01T02:29:48.619Z,19.55
2022-12-01T02:32:44.605Z,16.83
2022-12-01T02:35:36.862Z,17.67
2022-12-01T02:38:28.504Z,16.30
2022-12-01T02:41:21.266Z,15.10
2022-12-01T02:44:13.821Z,16.67
2022-12-01T02:47:06.588Z,15.32
2022-12-01T02:49:57.928Z,16.55
2022-12-01T02:52:45.946Z,16.20
2022-12-01T02:55:35.192Z,15.20
2022-12-01T02:58:24.626Z,18.17
2022-12-01T03:01:20.566Z,16.65
2022-12-01T03:04:21.167Z,15.98
2022-12-01T03:07:16.384Z,17.30
2022-12-01T03:10:10.797Z,17.63
2022-12-01T03:13:06.308Z,20.85
2022-12-01T03:16:00.271Z,17.25
2022-12-01T03:18:52.963Z,18.90
2022-12-01T03:21:43.477Z,23.25
2022-12-01T03:24:35.135Z,15.77
2022-12-01T03:27:25.519Z,23.35
2022-12-01T03:30:15.619Z,19.05
2022-12-01T03:33:09.152Z,23.52
2022-12-01T03:36:00.325Z,23.77
2022-12-01T03:38:53.560Z,19.83
2022-12-01T03:41:45.860Z,24.58
2022-12-01T03:44:37.188Z,27.77
2022-12-01T03:47:29.494Z,25.48
2022-12-01T03:50:18.724Z,20.60
2022-12-01T03:53:09.947Z,23.58
2022-12-01T03:56:00.767Z,23.58
2022-12-01T03:58:52.102Z,21.77
2022-12-01T04:01:41.726Z,20.70
2022-12-01T04:04:29.087Z,21.08
2022-12-01T04:07:18.278Z,20.65
2022-12-01T04:10:08.782Z,24.75
2022-12-01T04:13:00.159Z,21.65
2022-12-01T04:15:48.979Z,20.90
2022-12-01T04:18:36.075Z,20.23
2022-12-01T04:21:23.410Z,23.92
2022-12-01T04:24:10.759Z,22.63
2022-12-01T04:26:58.119Z,20.92
2022-12-01T04:29:45.545Z,23.95
2022-12-01T04:32:38.372Z,21.50
2022-12-01T04:35:25.389Z,21.35
2022-12-01T04:38:12.723Z,19.33
2022-12-01T04:40:59.968Z,19.92
2022-12-01T04:43:47.079Z,20.90
2022-12-01T04:46:34.515Z,21.42
2022-12-01T04:49:23.191Z,17.10
2022-12-01T04:52:10.579Z,20.05
2022-12-01T04:54:57.847Z,22.83
2022-12-01T04:57:45.218Z,21.52
2022-12-01T05:00:32.762Z,23.08
2022-12-01T05:03:19.890Z,21.42
2022-12-01T05:06:10.632Z,21.50
2022-12-01T05:08:58.824Z,20.85
2022-12-01T05:11:46.353Z,21.85
2022-12-01T05:14:33.407Z,17.52
2022-12-01T05:17:20.620Z,22.13
2022-12-01T05:20:27.031Z,18.55
2022-12-01T05:23:17.218Z,23.58
2022-12-01T05:26:05.032Z,21.98
2022-12-01T05:28:52.370Z,23.65
2022-12-01T05:31:39.951Z,25.10
2022-12-01T05:34:27.435Z,22.00
2022-12-01T05:37:14.866Z,23.92
2022-12-01T05:40:03.630Z,21.88
2022-12-01T05:42:50.824Z,20.75
2022-12-01T05:45:38.019Z,21.92
2022-12-01T05:48:25.688Z,21.65
2022-12-01T05:51:13.522Z,25.40
2022-12-01T05:54:00.592Z,19.52
2022-12-01T05:56:49.295Z,23.65
2022-12-01T05:59:36.726Z,19.00
2022-12-01T06:02:26.690Z,27.52
2022-12-01T06:05:13.711Z,25.33
2022-12-01T06:08:01.117Z,24.67
2022-12-01T06:10:48.352Z,21.48
2022-12-01T06:13:36.938Z,19.10
2022-12-01T06:16:24.229Z,19.33
2022-12-01T06:19:11.516Z,22.30
2022-12-01T06:21:59.067Z,19.55
2022-12-01T06:24:46.110Z,18.85
2022-12-01T06:27:33.507Z,17.85
2022-12-01T06:30:22.540Z,17.15
2022-12-01T06:33:09.862Z,16.90
2022-12-01T06:35:58.692Z,17.67
2022-12-01T06:38:46.196Z,14.90
2022-12-01T06:41:33.571Z,16.30
2022-12-01T06:44:20.898Z,19.17
2022-12-01T06:47:09.598Z,14.85
2022-12-01T06:49:56.928Z,15.90
2022-12-01T06:52:44.338Z,14.98
2022-12-01T06:55:31.631Z,14.20
2022-12-01T06:58:19.461Z,14.80
2022-12-01T07:01:11.334Z,14.05
2022-12-01T07:04:00.216Z,16.25
2022-12-01T07:06:47.760Z,16.58
2022-12-01T07:09:35.803Z,18.60
2022-12-01T07:12:23.598Z,16.13
2022-12-01T07:15:12.189Z,17.02
2022-12-01T07:17:59.958Z,17.80
2022-12-01T07:20:48.953Z,16.05
2022-12-01T07:23:36.637Z,16.73
2022-12-01T07:26:23.980Z,17.38
2022-12-01T07:29:12.535Z,15.95
2022-12-01T07:31:59.977Z,14.27
2022-12-01T07:34:47.521Z,15.70
2022-12-01T07:37:36.589Z,14.32
2022-12-01T07:40:24.996Z,13.13
2022-12-01T07:43:12.346Z,13.00
2022-12-01T07:46:05.790Z,13.88
2022-12-01T07:48:54.331Z,13.60
2022-12-01T07:51:42.082Z,11.90
2022-12-01T07:54:30.925Z,13.32
2022-12-01T07:57:19.597Z,13.43
2022-12-01T08:00:08.996Z,13.85
2022-12-01T08:02:56.453Z,17.42
2022-12-01T08:05:43.792Z,14.55
2022-12-01T08:08:32.703Z,13.80
2022-12-01T08:11:24.287Z,15.38
2022-12-01T08:14:11.803Z,13.45
2022-12-01T08:16:59.421Z,15.38
2022-12-01T08:19:47.368Z,11.27
2022-12-01T08:22:35.587Z,12.82
2022-12-01T08:25:23.191Z,13.43
2022-12-01T08:28:11.859Z,12.30
2022-12-01T08:30:59.624Z,12.13
2022-12-01T08:33:47.337Z,12.10
2022-12-01T08:36:35.311Z,13.18
2022-12-01T08:39:22.654Z,12.13
2022-12-01T08:42:10.436Z,11.88
2022-12-01T08:44:59.621Z,12.65
2022-12-01T08:47:47.756Z,11.40
2022-12-01T08:50:35.414Z,11.90
2022-12-01T08:53:23.137Z,11.15
2022-12-01T08:56:14.543Z,11.50
2022-12-01T08:59:02.409Z,11.57
2022-12-01T09:01:53.982Z,12.05
2022-12-01T09:04:41.784Z,10.20
2022-12-01T09:07:29.631Z,10.60
2022-12-01T09:10:17.136Z,11.38
2022-12-01T09:13:04.644Z,11.13
2022-12-01T09:15:56.889Z,9.90
2022-12-01T09:18:46.808Z,10.52
2022-12-01T09:21:37.073Z,9.82
2022-12-01T09:24:24.842Z,11.55
2022-12-01T09:27:13.244Z,12.18
2022-12-01T09:30:01.016Z,10.65
2022-12-01T09:32:48.560Z,11.55
2022-12-01T09:35:37.799Z,12.23
2022-12-01T09:38:25.206Z,11.57
2022-12-01T09:41:18.543Z,10.38
2022-12-01T09:44:15.167Z,10.50
2022-12-01T09:47:10.151Z,10.95
2022-12-01T09:50:01.504Z,11.52
2022-12-01T09:52:53.610Z,10.90
2022-12-01T09:55:41.068Z,10.35
2022-12-01T09:58:31.791Z,10.52
2022-12-01T10:01:27.002Z,9.77
2022-12-01T10:04:22.064Z,10.10
2022-12-01T10:07:19.071Z,11.20
2022-12-01T10:10:13.144Z,12.27
2022-12-01T10:13:01.100Z,12.25
2022-12-01T10:15:56.037Z,11.93
2022-12-01T10:18:55.886Z,13.88
2022-12-01T10:22:01.855Z,12.95
2022-12-01T10:24:55.419Z,13.73
2022-12-01T10:27:55.773Z,15.00
2022-12-01T10:30:50.635Z,15.82
2022-12-01T10:33:46.821Z,18.65
2022-12-01T10:36:35.363Z,18.80
2022-12-01T10:39:29.399Z,19.90
2022-12-01T10:42:22.405Z,18.95
2022-12-01T10:45:18.003Z,19.63
2022-12-01T10:48:13.188Z,18.80
2022-12-01T10:51:16.842Z,18.33
2022-12-01T10:54:11.728Z,18.73
2022-12-01T10:57:00.069Z,20.90
2022-12-01T10:59:52.710Z,19.80
2022-12-01T11:02:44.929Z,18.88
2022-12-01T11:05:39.555Z,18.65
2022-12-01T11:08:36.127Z,19.30
2022-12-01T11:11:27.524Z,19.83
2022-12-01T11:14:20.691Z,21.65
2022-12-01T11:17:29.691Z,23.50
2022-12-01T11:20:28.144Z,20.48
2022-12-01T11:23:28.314Z,23.48
2022-12-01T11:26:20.699Z,21.65
2022-12-01T11:29:23.784Z,19.25
2022-12-01T11:32:19.010Z,20.45
2022-12-01T11:35:16.872Z,19.55
2022-12-01T11:38:29.424Z,19.48
2022-12-01T11:41:26.964Z,17.80
2022-12-01T11:47:28.624Z,19.00
2022-12-01T11:50:27.903Z,19.00
2022-12-01T11:53:30.097Z,19.67
2022-12-01T11:56:23.283Z,19.13
2022-12-01T11:59:14.389Z,19.40
2022-12-01T12:02:14.926Z,19.00
2022-12-01T12:05:27.236Z,18.17
2022-12-01T12:08:25.633Z,19.77
2022-12-01T12:11:19.068Z,20.67
2022-12-01T12:14:33.679Z,19.52
2022-12-01T12:17:33.669Z,19.45
2022-12-01T12:20:47.479Z,19.83
2022-12-01T12:23:50.615Z,20.37
2022-12-01T12:26:46.288Z,20.33
2022-12-01T12:29:52.381Z,20.95
2022-12-01T12:32:53.506Z,20.55
2022-12-01T12:35:51.448Z,23.05
2022-12-01T12:38:52.280Z,20.50
2022-12-01T12:41:46.599Z,22.25
2022-12-01T12:44:46.277Z,22.42
2022-12-01T12:47:49.495Z,22.95
2022-12-01T12:50:44.784Z,20.40
2022-12-01T12:53:41.192Z,23.42
2022-12-01T12:56:32.142Z,22.27
2022-12-01T12:59:26.035Z,20.55
2022-12-01T13:02:17.215Z,21.63
2022-12-01T13:05:10.616Z,22.38
2022-12-01T13:08:02.286Z,23.42
2022-12-01T13:10:58.095Z,23.05
2022-12-01T13:14:01.534Z,22.20
2022-12-01T13:16:53.135Z,22.38
2022-12-01T13:19:42.829Z,25.30
2022-12-01T13:22:33.348Z,23.25
2022-12-01T13:25:39.622Z,22.70
2022-12-01T13:28:30.380Z,24.42
2022-12-01T13:31:20.178Z,24.85
2022-12-01T13:34:09.228Z,23.52
2022-12-01T13:36:57.496Z,23.30
2022-12-01T13:39:46.246Z,25.80
2022-12-01T13:42:34.317Z,24.20
2022-12-01T13:45:22.453Z,23.88
2022-12-01T13:48:29.280Z,22.83
2022-12-01T13:51:18.227Z,23.70
2022-12-01T13:54:27.068Z,22.33
2022-12-01T13:57:15.527Z,20.65
2022-12-01T14:00:05.835Z,20.85
2022-12-01T14:03:33.431Z,24.48
2022-12-01T14:06:30.273Z,22.33
2022-12-01T14:09:25.247Z,24.00
2022-12-01T14:12:19.596Z,20.05
2022-12-01T14:15:30.655Z,21.77
2022-12-01T14:18:33.466Z,21.30
2022-12-01T14:21:44.865Z,22.08
2022-12-01T14:24:36.369Z,21.02
2022-12-01T14:27:34.912Z,22.40
2022-12-01T14:31:03.303Z,20.98
2022-12-01T14:33:55.146Z,21.55
2022-12-01T14:36:46.883Z,19.45
2022-12-01T14:39:36.739Z,20.50
2022-12-01T14:42:48.304Z,19.08
2022-12-01T14:45:41.896Z,20.27
2022-12-01T14:48:37.147Z,20.73
2022-12-01T14:51:28.964Z,20.40
2022-12-01T14:54:25.260Z,21.95
2022-12-01T14:57:17.235Z,20.55
2022-12-01T15:00:09.696Z,19.83
2022-12-01T15:03:00.028Z,21.05
2022-12-01T15:05:47.536Z,18.52
2022-12-01T15:08:43.661Z,20.13
2022-12-01T15:11:35.982Z,20.13
2022-12-01T15:14:29.987Z,20.08
2022-12-01T15:20:29.803Z,20.33
2022-12-01T15:23:18.356Z,21.60
2022-12-01T15:26:06.001Z,22.83
2022-12-01T15:29:07.587Z,21.58
2022-12-01T15:31:57.175Z,20.92
2022-12-01T15:34:46.463Z,19.08
2022-12-01T15:37:42.426Z,22.30
2022-12-01T15:43:41.411Z,22.58
2022-12-01T15:46:31.892Z,23.45
2022-12-01T15:49:22.173Z,22.73
2022-12-01T15:52:13.553Z,24.52
2022-12-01T15:55:04.365Z,24.70
2022-12-01T15:57:51.893Z,25.35
2022-12-01T16:00:39.626Z,26.80
2022-12-01T16:03:29.499Z,26.63
2022-12-01T16:06:18.108Z,24.63
2022-12-01T16:09:08.261Z,26.48
2022-12-01T16:12:21.966Z,27.60
2022-12-01T16:15:19.504Z,27.95
2022-12-01T16:18:27.616Z,26.92
2022-12-01T16:21:17.529Z,26.80
2022-12-01T16:24:07.045Z,27.55
2022-12-01T16:26:56.787Z,28.92
2022-12-01T16:29:50.376Z,27.75
2022-12-01T16:32:40.670Z,29.83
2022-12-01T16:35:30.486Z,28.15
2022-12-01T16:38:22.708Z,29.02
2022-12-01T16:41:18.202Z,28.00
2022-12-01T16:44:27.566Z,29.55
2022-12-01T16:47:15.963Z,29.10
2022-12-01T16:50:03.371Z,28.88
2022-12-01T16:52:50.759Z,27.15
2022-12-01T16:55:43.186Z,30.27
2022-12-01T16:58:30.943Z,26.50
2022-12-01T17:01:19.016Z,27.63
2022-12-01T17:04:07.864Z,24.42
2022-12-01T17:06:55.954Z,26.00
2022-12-01T17:09:43.691Z,26.58
2022-12-01T17:12:32.856Z,27.27
2022-12-01T17:15:20.453Z,26.10
2022-12-01T17:18:07.962Z,26.00
2022-12-01T17:20:59.893Z,26.50
2022-12-01T17:23:47.653Z,22.73
2022-12-01T17:26:35.114Z,23.33
2022-12-01T17:29:24.087Z,24.70
2022-12-01T17:32:13.598Z,24.10
2022-12-01T17:35:01.735Z,20.60
2022-12-01T17:37:49.160Z,23.42
2022-12-01T17:40:36.739Z,24.10
2022-12-01T17:43:24.401Z,25.17
2022-12-01T17:46:13.991Z,23.70
2022-12-01T17:49:01.600Z,25.38
2022-12-01T17:51:49.508Z,24.13
2022-12-01T17:54:37.134Z,24.08
2022-12-01T17:57:25.264Z,23.30
2022-12-01T18:00:14.550Z,20.85
2022-12-01T18:03:03.906Z,20.90
2022-12-01T18:05:58.836Z,21.45
2022-12-01T18:08:46.266Z,22.55
2022-12-01T18:11:34.185Z,21.30
2022-12-01T18:14:21.483Z,20.42
2022-12-01T18:17:09.050Z,20.75
2022-12-01T18:19:58.170Z,20.25
2022-12-01T18:22:45.471Z,19.23
2022-12-01T18:25:32.632Z,21.52
2022-12-01T18:28:19.830Z,20.83
2022-12-01T18:31:08.015Z,19.45
2022-12-01T18:33:55.475Z,21.20
2022-12-01T18:36:44.169Z,16.75
2022-12-01T18:39:31.605Z,20.35
2022-12-01T18:42:19.135Z,18.88
2022-12-01T18:45:07.611Z,17.20
2022-12-01T18:47:54.972Z,16.38
2022-12-01T18:50:43.129Z,16.60
2022-12-01T18:53:32.845Z,14.88
2022-12-01T18:56:20.188Z,15.20
2022-12-01T18:59:09.708Z,17.63
2022-12-01T19:01:57.484Z,17.20
2022-12-01T19:04:44.951Z,17.48
2022-12-01T19:07:32.474Z,17.30
2022-12-01T19:10:21.796Z,15.82
2022-12-01T19:13:09.528Z,18.35
2022-12-01T19:15:56.967Z,18.17
2022-12-01T19:18:44.845Z,18.95
2022-12-01T19:21:32.289Z,17.02
2022-12-01T19:24:20.342Z,18.02
2022-12-01T19:27:09.315Z,17.00
2022-12-01T19:29:56.779Z,18.55
2022-12-01T19:32:44.612Z,18.17
2022-12-01T19:35:32.987Z,18.73
2022-12-01T19:38:20.440Z,16.05
2022-12-01T19:41:09.381Z,17.23
2022-12-01T19:43:59.325Z,17.30
2022-12-01T19:46:47.016Z,17.30
2022-12-01T19:49:34.738Z,15.85
2022-12-01T19:52:21.859Z,13.98
2022-12-01T19:55:10.751Z,18.52
2022-12-01T19:57:58.436Z,15.52
2022-12-01T20:00:47.570Z,17.25
2022-12-01T20:03:35.087Z,17.58
2022-12-01T20:06:24.899Z,15.55
2022-12-01T20:09:12.250Z,15.40
2022-12-01T20:11:59.653Z,15.52
2022-12-01T20:14:47.652Z,16.35
2022-12-01T20:17:37.839Z,16.50
2022-12-01T20:20:25.514Z,14.73
2022-12-01T20:23:13.231Z,14.48
2022-12-01T20:26:01.811Z,15.82
2022-12-01T20:28:50.351Z,16.60
2022-12-01T20:31:38.968Z,14.25
2022-12-01T20:34:28.940Z,16.27
2022-12-01T20:37:16.411Z,15.73
2022-12-01T20:40:04.116Z,17.38
2022-12-01T20:42:51.548Z,17.73
2022-12-01T20:45:39.331Z,19.10
2022-12-01T20:48:27.556Z,17.42
2022-12-01T20:51:16.567Z,15.95
2022-12-01T20:54:27.383Z,18.60
2022-12-01T20:57:13.340Z,17.88
2022-12-01T21:00:00.942Z,18.25
2022-12-01T21:02:49.166Z,17.45
2022-12-01T21:05:39.991Z,18.35
2022-12-01T21:08:28.975Z,18.15
2022-12-01T21:11:19.008Z,17.35
2022-12-01T21:14:05.104Z,16.55
2022-12-01T21:16:53.883Z,19.90
2022-12-01T21:19:45.053Z,17.80
2022-12-01T21:22:32.429Z,18.75
2022-12-01T21:25:22.819Z,21.77
2022-12-01T21:28:14.386Z,17.75
2022-12-01T21:31:03.954Z,17.08
2022-12-01T21:33:51.267Z,18.42
2022-12-01T21:36:38.495Z,19.10
2022-12-01T21:39:26.550Z,18.88
2022-12-01T21:42:17.990Z,19.98
2022-12-01T21:45:07.782Z,18.33
2022-12-01T21:47:55.699Z,16.95
2022-12-01T21:50:42.735Z,21.08
2022-12-01T21:53:34.310Z,18.85
2022-12-01T21:56:22.436Z,17.73
2022-12-01T21:59:16.582Z,19.23
2022-12-01T22:04:51.106Z,17.25
2022-12-01T22:07:38.514Z,17.52
2022-12-01T22:10:46.647Z,18.10
2022-12-01T22:13:40.852Z,18.38
2022-12-01T22:16:31.503Z,17.55
2022-12-01T22:19:22.506Z,18.48
2022-12-01T22:22:18.397Z,16.83
2022-12-01T22:25:13.403Z,16.88
2022-12-01T22:28:01.299Z,19.38
2022-12-01T22:30:48.556Z,16.95
2022-12-01T22:33:37.133Z,17.73
2022-12-01T22:36:25.690Z,15.70
2022-12-01T22:39:24.444Z,16.55
2022-12-01T22:42:15.455Z,14.23
2022-12-01T22:45:04.015Z,15.38
2022-12-01T22:47:51.179Z,16.23
2022-12-01T22:50:40.596Z,15.50
2022-12-01T22:53:30.281Z,14.85
2022-12-01T22:56:28.163Z,15.05
2022-12-01T22:59:17.031Z,13.00
2022-12-01T23:02:14.407Z,13.88
2022-12-01T23:05:15.867Z,13.95
2022-12-01T23:08:10.569Z,14.43
2022-12-01T23:10:57.904Z,12.98
2022-12-01T23:13:45.278Z,14.40
2022-12-01T23:16:32.753Z,14.23
2022-12-01T23:19:19.720Z,12.88
2022-12-01T23:22:07.349Z,12.85
2022-12-01T23:24:56.063Z,13.82
2022-12-01T23:27:43.648Z,14.48
2022-12-01T23:30:30.775Z,14.52
2022-12-01T23:33:19.659Z,13.48
2022-12-01T23:36:11.388Z,12.10
2022-12-01T23:38:59.286Z,13.00
2022-12-01T23:41:48.567Z,13.52
2022-12-01T23:44:38.341Z,11.82
2022-12-01T23:47:26.368Z,14.05
2022-12-01T23:50:16.526Z,13.93
2022-12-01T23:53:03.608Z,13.32
2022-12-01T23:55:51.231Z,13.38
2022-12-01T23:58:39.939Z,14.27
